sensor_id;sensor_type;location;lat;lon;timestamp;pressure;altitude;pressure_sealevel;temperature;humidity
25650;BME280;13505;45.196;5.696;2023-01-08T05:02:54;98641.06;;;13.29;47.58
25650;BME280;13505;45.196;5.696;2023-01-08T05:07:44;98639.28;;;13.30;47.86
25650;BME280;13505;45.196;5.696;2023-01-08T05:12:35;98628.25;;;13.36;47.40
25650;BME280;13505;45.196;5.696;2023-01-08T05:17:25;98612.06;;;13.40;47.07
25650;BME280;13505;45.196;5.696;2023-01-08T05:22:15;98612.34;;;13.50;46.24
25650;BME280;13505;45.196;5.696;2023-01-08T05:27:06;98607.69;;;13.67;46.19
25650;BME280;13505;45.196;5.696;2023-01-08T05:31:56;98614.81;;;13.66;46.29
25650;BME280;13505;45.196;5.696;2023-01-08T05:36:46;98621.25;;;13.35;47.70
25650;BME280;13505;45.196;5.696;2023-01-08T05:41:37;98608.72;;;13.64;47.18
25650;BME280;13505;45.196;5.696;2023-01-08T05:46:27;98621.13;;;13.51;47.32
25650;BME280;13505;45.196;5.696;2023-01-08T05:51:17;98640.34;;;13.67;46.25
25650;BME280;13505;45.196;5.696;2023-01-08T05:56:10;98643.00;;;13.67;46.82
25650;BME280;13505;45.196;5.696;2023-01-08T06:05:57;98641.88;;;13.98;46.88
25650;BME280;13505;45.196;5.696;2023-01-08T06:10:47;98630.09;;;14.02;46.74
25650;BME280;13505;45.196;5.696;2023-01-08T06:15:37;98623.19;;;13.99;48.33
25650;BME280;13505;45.196;5.696;2023-01-08T06:20:29;98637.00;;;13.51;50.85
25650;BME280;13505;45.196;5.696;2023-01-08T06:25:19;98669.88;;;13.34;52.49
25650;BME280;13505;45.196;5.696;2023-01-08T06:30:10;98681.06;;;13.24;55.69
25650;BME280;13505;45.196;5.696;2023-01-08T06:35:00;98683.13;;;13.06;58.83
25650;BME280;13505;45.196;5.696;2023-01-08T06:39:50;98688.47;;;12.92;61.73
25650;BME280;13505;45.196;5.696;2023-01-08T06:44:41;98691.19;;;12.90;62.39
25650;BME280;13505;45.196;5.696;2023-01-08T06:49:31;98683.00;;;12.80;63.52
25650;BME280;13505;45.196;5.696;2023-01-08T06:54:21;98697.06;;;12.81;64.28
25650;BME280;13505;45.196;5.696;2023-01-08T06:59:12;98699.16;;;12.76;66.41
25650;BME280;13505;45.196;5.696;2023-01-08T07:04:02;98703.97;;;12.25;66.41
25650;BME280;13505;45.196;5.696;2023-01-08T07:08:53;98709.81;;;12.16;68.56
25650;BME280;13505;45.196;5.696;2023-01-08T07:13:43;98729.44;;;12.26;70.97
25650;BME280;13505;45.196;5.696;2023-01-08T07:18:34;98714.78;;;11.76;70.87
25650;BME280;13505;45.196;5.696;2023-01-08T07:23:25;98754.47;;;11.27;71.21
25650;BME280;13505;45.196;5.696;2023-01-08T07:28:15;98740.38;;;10.79;70.48
25650;BME280;13505;45.196;5.696;2023-01-08T07:33:06;98769.94;;;11.01;68.68
25650;BME280;13505;45.196;5.696;2023-01-08T07:37:56;98770.84;;;10.33;70.43
25650;BME280;13505;45.196;5.696;2023-01-08T07:42:46;98774.81;;;10.59;72.54
25650;BME280;13505;45.196;5.696;2023-01-08T07:47:37;98779.28;;;10.22;73.57
25650;BME280;13505;45.196;5.696;2023-01-08T07:52:27;98784.34;;;10.27;75.67
25650;BME280;13505;45.196;5.696;2023-01-08T07:57:18;98791.88;;;10.17;76.51
25650;BME280;13505;45.196;5.696;2023-01-08T08:02:11;98790.38;;;9.94;76.25
25650;BME280;13505;45.196;5.696;2023-01-08T08:07:02;98801.53;;;10.16;76.97
25650;BME280;13505;45.196;5.696;2023-01-08T08:11:52;98805.88;;;10.00;76.62
25650;BME280;13505;45.196;5.696;2023-01-08T08:16:42;98791.94;;;10.15;76.71
25650;BME280;13505;45.196;5.696;2023-01-08T08:21:33;98791.94;;;10.15;76.00
25650;BME280;13505;45.196;5.696;2023-01-08T08:26:23;98785.78;;;9.80;76.78
25650;BME280;13505;45.196;5.696;2023-01-08T08:31:14;98785.56;;;10.02;77.93
25650;BME280;13505;45.196;5.696;2023-01-08T08:36:05;98785.06;;;9.76;77.55
25650;BME280;13505;45.196;5.696;2023-01-08T08:40:55;98798.47;;;9.71;77.80
25650;BME280;13505;45.196;5.696;2023-01-08T08:45:46;98792.91;;;9.77;77.96
25650;BME280;13505;45.196;5.696;2023-01-08T08:50:36;98791.69;;;9.85;78.47
25650;BME280;13505;45.196;5.696;2023-01-08T08:55:27;98778.44;;;10.04;78.37
25650;BME280;13505;45.196;5.696;2023-01-08T09:00:18;98771.16;;;9.91;79.56
25650;BME280;13505;45.196;5.696;2023-01-08T09:05:09;98752.84;;;9.71;80.19
25650;BME280;13505;45.196;5.696;2023-01-08T09:10:00;98758.13;;;9.71;80.48
25650;BME280;13505;45.196;5.696;2023-01-08T09:14:50;98741.00;;;9.43;81.79
25650;BME280;13505;45.196;5.696;2023-01-08T09:19:42;98756.31;;;9.54;81.36
25650;BME280;13505;45.196;5.696;2023-01-08T09:24:32;98746.59;;;9.37;83.15
25650;BME280;13505;45.196;5.696;2023-01-08T09:29:23;98746.09;;;9.65;82.49
25650;BME280;13505;45.196;5.696;2023-01-08T09:34:14;98736.19;;;9.33;84.16
25650;BME280;13505;45.196;5.696;2023-01-08T09:39:04;98729.22;;;9.32;83.95
25650;BME280;13505;45.196;5.696;2023-01-08T09:43:56;98728.63;;;9.45;84.41
25650;BME280;13505;45.196;5.696;2023-01-08T09:48:48;98711.50;;;9.36;84.41
25650;BME280;13505;45.196;5.696;2023-01-08T09:53:41;98728.63;;;9.45;84.27
25650;BME280;13505;45.196;5.696;2023-01-08T09:58:37;98705.19;;;9.40;84.72
25650;BME280;13505;45.196;5.696;2023-01-08T10:03:38;98672.97;;;9.35;85.08
25650;BME280;13505;45.196;5.696;2023-01-08T10:08:29;98645.72;;;9.36;87.42
25650;BME280;13505;45.196;5.696;2023-01-08T10:13:20;98635.91;;;9.57;89.66
25650;BME280;13505;45.196;5.696;2023-01-08T10:18:11;98639.84;;;9.84;89.46
25650;BME280;13505;45.196;5.696;2023-01-08T10:23:11;98655.47;;;9.87;87.81
25650;BME280;13505;45.196;5.696;2023-01-08T10:28:02;98669.75;;;9.83;87.78
25650;BME280;13505;45.196;5.696;2023-01-08T10:32:54;98643.72;;;9.41;86.89
25650;BME280;13505;45.196;5.696;2023-01-08T10:37:45;98641.00;;;9.43;89.40
25650;BME280;13505;45.196;5.696;2023-01-08T10:42:38;98632.88;;;9.83;86.65
25650;BME280;13505;45.196;5.696;2023-01-08T10:47:32;98629.84;;;9.55;87.54
25650;BME280;13505;45.196;5.696;2023-01-08T10:52:32;98643.41;;;9.83;87.59
25650;BME280;13505;45.196;5.696;2023-01-08T10:57:27;98621.00;;;9.74;85.63
25650;BME280;13505;45.196;5.696;2023-01-08T11:02:23;98607.47;;;9.46;88.24
25650;BME280;13505;45.196;5.696;2023-01-08T11:07:21;98601.19;;;9.31;88.21
25650;BME280;13505;45.196;5.696;2023-01-08T11:17:26;98587.19;;;10.00;87.53
25650;BME280;13505;45.196;5.696;2023-01-08T11:32:13;98574.72;;;10.19;90.01
25650;BME280;13505;45.196;5.696;2023-01-08T11:42:26;98555.38;;;9.87;92.79
25650;BME280;13505;45.196;5.696;2023-01-08T11:52:37;98531.78;;;10.33;91.06
25650;BME280;13505;45.196;5.696;2023-01-08T11:57:40;98529.94;;;10.36;91.79
25650;BME280;13505;45.196;5.696;2023-01-08T12:02:49;98529.84;;;10.37;90.66
25650;BME280;13505;45.196;5.696;2023-01-08T12:08:07;98530.34;;;10.12;91.88
25650;BME280;13505;45.196;5.696;2023-01-08T12:18:35;98509.16;;;10.47;90.84
25650;BME280;13505;45.196;5.696;2023-01-08T12:24:09;98485.03;;;10.21;90.43
25650;BME280;13505;45.196;5.696;2023-01-08T12:29:12;98480.69;;;10.36;90.87
25650;BME280;13505;45.196;5.696;2023-01-08T12:34:15;98460.81;;;10.46;91.32
25650;BME280;13505;45.196;5.696;2023-01-08T12:39:22;98447.31;;;10.21;92.84
25650;BME280;13505;45.196;5.696;2023-01-08T12:44:19;98426.22;;;10.53;91.87
25650;BME280;13505;45.196;5.696;2023-01-08T12:49:20;98422.97;;;10.31;92.53
25650;BME280;13505;45.196;5.696;2023-01-08T12:54:36;98407.91;;;10.50;92.18
25650;BME280;13505;45.196;5.696;2023-01-08T12:59:47;98401.16;;;10.60;90.87
25650;BME280;13505;45.196;5.696;2023-01-08T13:04:45;98379.25;;;10.88;89.38
25650;BME280;13505;45.196;5.696;2023-01-08T13:09:35;98382.31;;;10.97;88.33
25650;BME280;13505;45.196;5.696;2023-01-08T13:14:26;98369.81;;;10.39;91.72
25650;BME280;13505;45.196;5.696;2023-01-08T13:19:22;98336.91;;;10.46;91.34
25650;BME280;13505;45.196;5.696;2023-01-08T13:24:33;98329.91;;;10.91;89.04
25650;BME280;13505;45.196;5.696;2023-01-08T13:34:38;98312.78;;;11.12;90.61
25650;BME280;13505;45.196;5.696;2023-01-08T13:39:38;98317.81;;;11.44;87.00
25650;BME280;13505;45.196;5.696;2023-01-08T13:44:32;98312.88;;;10.96;88.70
25650;BME280;13505;45.196;5.696;2023-01-08T13:49:44;98296.28;;;11.51;85.51
25650;BME280;13505;45.196;5.696;2023-01-08T13:54:42;98296.66;;;11.59;85.23
25650;BME280;13505;45.196;5.696;2023-01-08T13:59:52;98281.84;;;11.14;85.98
25650;BME280;13505;45.196;5.696;2023-01-08T14:04:48;98277.06;;;11.49;86.16
25650;BME280;13505;45.196;5.696;2023-01-08T14:09:38;98262.91;;;11.50;85.00
25650;BME280;13505;45.196;5.696;2023-01-08T14:14:29;98264.72;;;11.49;84.85
25650;BME280;13505;45.196;5.696;2023-01-08T14:19:21;98246.22;;;11.49;85.67
25650;BME280;13505;45.196;5.696;2023-01-08T14:24:15;98231.31;;;11.21;86.77
25650;BME280;13505;45.196;5.696;2023-01-08T14:29:26;98228.34;;;11.40;86.13
25650;BME280;13505;45.196;5.696;2023-01-08T14:34:25;98231.78;;;11.27;87.75
25650;BME280;13505;45.196;5.696;2023-01-08T14:39:24;98212.81;;;10.79;91.83
25650;BME280;13505;45.196;5.696;2023-01-08T14:44:15;98212.69;;;10.95;91.24
25650;BME280;13505;45.196;5.696;2023-01-08T14:49:05;98212.44;;;10.70;92.37
25650;BME280;13505;45.196;5.696;2023-01-08T14:54:00;98202.81;;;10.69;93.51
25650;BME280;13505;45.196;5.696;2023-01-08T14:58:51;98198.31;;;10.57;94.13
25650;BME280;13505;45.196;5.696;2023-01-08T15:03:46;98181.84;;;10.68;94.30
25650;BME280;13505;45.196;5.696;2023-01-08T15:08:41;98178.44;;;10.51;97.04
25650;BME280;13505;45.196;5.696;2023-01-08T15:13:35;98179.41;;;10.19;97.91
25650;BME280;13505;45.196;5.696;2023-01-08T15:18:28;98165.25;;;10.80;92.93
25650;BME280;13505;45.196;5.696;2023-01-08T15:23:31;98160.34;;;11.16;90.65
25650;BME280;13505;45.196;5.696;2023-01-08T15:28:24;98142.41;;;10.94;92.61
25650;BME280;13505;45.196;5.696;2023-01-08T15:33:21;98144.19;;;10.93;90.64
25650;BME280;13505;45.196;5.696;2023-01-08T15:38:12;98134.06;;;10.72;92.27
25650;BME280;13505;45.196;5.696;2023-01-08T15:43:03;98120.13;;;10.70;92.98
25650;BME280;13505;45.196;5.696;2023-01-08T15:47:59;98117.31;;;10.59;94.39
25650;BME280;13505;45.196;5.696;2023-01-08T15:52:50;98103.19;;;10.60;94.02
25650;BME280;13505;45.196;5.696;2023-01-08T15:57:40;98109.63;;;10.41;94.44
25650;BME280;13505;45.196;5.696;2023-01-08T16:02:39;98098.16;;;10.42;94.48
25650;BME280;13505;45.196;5.696;2023-01-08T16:07:29;98099.97;;;10.40;94.51
25650;BME280;13505;45.196;5.696;2023-01-08T16:12:20;98093.50;;;10.46;94.87
25650;BME280;13505;45.196;5.696;2023-01-08T16:17:10;98095.94;;;10.34;95.63
25650;BME280;13505;45.196;5.696;2023-01-08T16:22:01;98087.94;;;10.36;95.38
25650;BME280;13505;45.196;5.696;2023-01-08T16:26:51;98083.16;;;10.28;94.66
25650;BME280;13505;45.196;5.696;2023-01-08T16:31:46;98096.34;;;10.28;94.72
25650;BME280;13505;45.196;5.696;2023-01-08T16:36:37;98085.22;;;10.23;94.91
25650;BME280;13505;45.196;5.696;2023-01-08T16:41:27;98085.31;;;10.07;94.98
25650;BME280;13505;45.196;5.696;2023-01-08T16:46:17;98095.56;;;10.12;95.00
25650;BME280;13505;45.196;5.696;2023-01-08T16:51:08;98088.25;;;10.17;95.58
25650;BME280;13505;45.196;5.696;2023-01-08T16:56:00;98081.56;;;10.11;97.07
25650;BME280;13505;45.196;5.696;2023-01-08T17:00:50;98071.38;;;10.19;95.63
25650;BME280;13505;45.196;5.696;2023-01-08T17:05:43;98084.75;;;10.31;95.18
25650;BME280;13505;45.196;5.696;2023-01-08T17:10:40;98072.25;;;10.20;96.44
25650;BME280;13505;45.196;5.696;2023-01-08T17:15:31;98071.28;;;10.21;96.49
25650;BME280;13505;45.196;5.696;2023-01-08T17:20:21;98089.75;;;10.21;96.25
25650;BME280;13505;45.196;5.696;2023-01-08T17:25:13;98098.13;;;9.99;96.98
25650;BME280;13505;45.196;5.696;2023-01-08T17:30:03;98103.88;;;10.20;96.20
25650;BME280;13505;45.196;5.696;2023-01-08T17:34:54;98099.06;;;10.27;96.11
25650;BME280;13505;45.196;5.696;2023-01-08T17:39:44;98092.00;;;10.27;95.15
25650;BME280;13505;45.196;5.696;2023-01-08T17:44:35;98081.63;;;10.24;97.81
25650;BME280;13505;45.196;5.696;2023-01-08T17:49:25;98092.84;;;10.28;96.88
25650;BME280;13505;45.196;5.696;2023-01-08T17:54:16;98104.13;;;10.30;96.26
25650;BME280;13505;45.196;5.696;2023-01-08T17:59:06;98108.28;;;10.34;95.10
25650;BME280;13505;45.196;5.696;2023-01-08T18:03:57;98102.06;;;10.35;94.66
25650;BME280;13505;45.196;5.696;2023-01-08T18:08:47;98109.91;;;10.37;95.21
25650;BME280;13505;45.196;5.696;2023-01-08T18:13:38;98125.69;;;10.22;96.03
25650;BME280;13505;45.196;5.696;2023-01-08T18:18:28;98112.91;;;10.16;97.19
25650;BME280;13505;45.196;5.696;2023-01-08T18:23:19;98120.63;;;10.04;97.07
25650;BME280;13505;45.196;5.696;2023-01-08T18:28:09;98119.38;;;9.96;97.98
25650;BME280;13505;45.196;5.696;2023-01-08T18:32:59;98108.97;;;9.63;100.00
25650;BME280;13505;45.196;5.696;2023-01-08T18:37:50;98104.91;;;9.88;98.20
25650;BME280;13505;45.196;5.696;2023-01-08T18:42:40;98087.38;;;9.87;98.23
25650;BME280;13505;45.196;5.696;2023-01-08T18:47:30;98108.47;;;10.02;96.52
25650;BME280;13505;45.196;5.696;2023-01-08T18:52:21;98114.31;;;9.93;96.99
25650;BME280;13505;45.196;5.696;2023-01-08T18:57:11;98136.13;;;9.95;96.49
25650;BME280;13505;45.196;5.696;2023-01-08T19:02:02;98153.63;;;9.96;97.49
25650;BME280;13505;45.196;5.696;2023-01-08T19:06:52;98156.84;;;10.01;95.80
25650;BME280;13505;45.196;5.696;2023-01-08T19:11:43;98160.03;;;10.06;95.47
25650;BME280;13505;45.196;5.696;2023-01-08T19:16:33;98165.31;;;10.06;94.54
25650;BME280;13505;45.196;5.696;2023-01-08T19:21:24;98168.88;;;10.19;93.15
25650;BME280;13505;45.196;5.696;2023-01-08T19:26:15;98152.03;;;10.22;93.42
25650;BME280;13505;45.196;5.696;2023-01-08T19:31:05;98172.94;;;10.11;95.59
25650;BME280;13505;45.196;5.696;2023-01-08T19:36:03;98144.69;;;10.13;95.56
25650;BME280;13505;45.196;5.696;2023-01-08T19:40:57;98153.75;;;10.09;96.66
25650;BME280;13505;45.196;5.696;2023-01-08T19:45:49;98150.91;;;10.12;97.55
25650;BME280;13505;45.196;5.696;2023-01-08T19:50:39;98139.81;;;10.07;97.44
25650;BME280;13505;45.196;5.696;2023-01-08T19:55:30;98124.56;;;10.12;96.90
25650;BME280;13505;45.196;5.696;2023-01-08T20:00:20;98131.31;;;10.01;98.64
25650;BME280;13505;45.196;5.696;2023-01-08T20:05:11;98142.72;;;10.16;98.74
25650;BME280;13505;45.196;5.696;2023-01-08T20:10:02;98139.34;;;10.14;96.91
25650;BME280;13505;45.196;5.696;2023-01-08T20:14:53;98142.66;;;10.18;98.98
25650;BME280;13505;45.196;5.696;2023-01-08T20:19:44;98139.06;;;10.19;99.41
25650;BME280;13505;45.196;5.696;2023-01-08T20:24:34;98132.47;;;10.12;99.39
25650;BME280;13505;45.196;5.696;2023-01-08T20:29:24;98141.91;;;10.16;97.93
25650;BME280;13505;45.196;5.696;2023-01-08T20:34:16;98157.03;;;10.12;99.02
25650;BME280;13505;45.196;5.696;2023-01-08T20:39:08;98145.91;;;10.07;100.00
25650;BME280;13505;45.196;5.696;2023-01-08T20:44:02;98148.38;;;10.10;97.44
25650;BME280;13505;45.196;5.696;2023-01-08T20:48:57;98144.81;;;10.11;98.77
25650;BME280;13505;45.196;5.696;2023-01-08T20:53:54;98155.75;;;9.74;100.00
25650;BME280;13505;45.196;5.696;2023-01-08T20:58:46;98152.94;;;9.92;100.00
25650;BME280;13505;45.196;5.696;2023-01-08T21:03:37;98155.03;;;9.87;100.00
25650;BME280;13505;45.196;5.696;2023-01-08T21:08:28;98170.19;;;9.98;100.00
25650;BME280;13505;45.196;5.696;2023-01-08T21:13:18;98166.63;;;9.99;98.82
25650;BME280;13505;45.196;5.696;2023-01-08T21:18:08;98155.69;;;9.90;100.00
25650;BME280;13505;45.196;5.696;2023-01-08T21:22:59;98162.66;;;9.91;100.00
25650;BME280;13505;45.196;5.696;2023-01-08T21:27:49;98158.22;;;9.92;99.81
25650;BME280;13505;45.196;5.696;2023-01-08T21:32:39;98128.69;;;9.87;100.00
25650;BME280;13505;45.196;5.696;2023-01-08T21:37:30;98127.06;;;9.70;100.00
25650;BME280;13505;45.196;5.696;2023-01-08T21:42:20;98151.56;;;9.56;100.00
25650;BME280;13505;45.196;5.696;2023-01-08T21:47:29;98169.38;;;9.67;100.00
25650;BME280;13505;45.196;5.696;2023-01-08T21:52:19;98128.47;;;9.45;100.00
25650;BME280;13505;45.196;5.696;2023-01-08T21:57:28;98144.13;;;9.48;100.00
25650;BME280;13505;45.196;5.696;2023-01-08T22:02:21;98123.34;;;9.58;100.00
25650;BME280;13505;45.196;5.696;2023-01-08T22:07:13;98138.41;;;9.56;100.00
25650;BME280;13505;45.196;5.696;2023-01-08T22:12:04;98155.84;;;9.42;100.00
25650;BME280;13505;45.196;5.696;2023-01-08T22:16:55;98164.66;;;9.57;100.00
25650;BME280;13505;45.196;5.696;2023-01-08T22:21:46;98144.47;;;9.42;100.00
25650;BME280;13505;45.196;5.696;2023-01-08T22:26:36;98120.22;;;9.51;100.00
25650;BME280;13505;45.196;5.696;2023-01-08T22:31:27;98136.81;;;9.37;100.00
25650;BME280;13505;45.196;5.696;2023-01-08T22:36:17;98150.84;;;9.38;100.00
25650;BME280;13505;45.196;5.696;2023-01-08T22:41:28;98159.31;;;9.43;100.00
25650;BME280;13505;45.196;5.696;2023-01-08T22:46:18;98147.06;;;9.11;100.00
25650;BME280;13505;45.196;5.696;2023-01-08T22:51:09;98142.97;;;9.21;100.00
25650;BME280;13505;45.196;5.696;2023-01-08T22:55:59;98159.78;;;9.19;100.00
